createdAt,value
2019-02-12T00:02:15.999Z,62.83
2019-02-12T00:07:18.805Z,62.83
2019-02-12T00:12:20.952Z,62.92
2019-02-12T00:17:23.193Z,62.92
2019-02-12T00:22:25.395Z,63.24
2019-02-12T00:27:27.626Z,63.40
2019-02-12T00:32:30.351Z,63.52
2019-02-12T00:37:32.529Z,63.72
2019-02-12T00:42:35.230Z,63.86
2019-02-12T00:47:37.735Z,64.30
2019-02-12T00:52:40.192Z,64.49
2019-02-12T00:57:42.925Z,64.65
2019-02-12T01:02:46.013Z,64.90
2019-02-12T01:07:50.009Z,65.27
2019-02-12T01:12:52.851Z,65.63
2019-02-12T01:17:55.534Z,65.95
2019-02-12T01:22:58.857Z,66.17
2019-02-12T01:28:01.548Z,66.27
2019-02-12T01:33:05.884Z,66.46
2019-02-12T01:38:08.048Z,66.62
2019-02-12T01:43:10.204Z,66.73
2019-02-12T01:48:12.415Z,66.83
2019-02-12T01:53:15.753Z,66.94
2019-02-12T01:58:18.356Z,66.88
2019-02-12T02:03:20.572Z,66.85
2019-02-12T02:08:23.124Z,66.83
2019-02-12T02:13:25.457Z,66.38
2019-02-12T02:18:27.708Z,66.38
2019-02-12T02:23:29.873Z,66.40
2019-02-12T02:28:32.668Z,66.31
2019-02-12T02:33:35.379Z,66.37
2019-02-12T02:38:37.863Z,66.39
2019-02-12T02:43:41.382Z,66.42
2019-02-12T02:48:44.752Z,66.33
2019-02-12T02:53:47.766Z,66.49
2019-02-12T02:58:50.547Z,66.36
2019-02-12T03:03:53.401Z,66.47
2019-02-12T03:08:56.200Z,66.64
2019-02-12T03:13:58.379Z,66.63
2019-02-12T03:19:00.536Z,66.80
2019-02-12T03:24:02.688Z,67.01
2019-02-12T03:29:04.832Z,67.19
2019-02-12T03:34:07.020Z,67.39
2019-02-12T03:39:09.744Z,67.59
2019-02-12T03:44:12.612Z,67.77
2019-02-12T03:49:14.769Z,67.89
2019-02-12T03:54:17.797Z,68.00
2019-02-12T03:59:20.217Z,68.12
2019-02-12T04:04:22.976Z,67.97
2019-02-12T04:09:25.527Z,68.11
2019-02-12T04:14:28.242Z,68.32
2019-02-12T04:19:31.283Z,68.39
2019-02-12T04:24:33.492Z,68.55
2019-02-12T04:29:36.187Z,68.58
2019-02-12T04:34:39.315Z,68.66
2019-02-12T04:39:42.337Z,68.74
2019-02-12T04:44:44.611Z,68.68
2019-02-12T04:49:46.811Z,68.71
2019-02-12T04:54:49.025Z,68.70
2019-02-12T04:59:51.978Z,68.77
2019-02-12T05:04:54.189Z,68.84
2019-02-12T05:09:56.801Z,68.97
2019-02-12T05:14:59.062Z,69.06
2019-02-12T05:20:01.243Z,69.26
2019-02-12T05:25:04.788Z,69.40
2019-02-12T05:30:08.750Z,69.49
2019-02-12T05:35:11.496Z,69.69
2019-02-12T05:40:14.537Z,69.84
2019-02-12T05:45:16.742Z,70.06
2019-02-12T05:50:18.892Z,70.26
2019-02-12T05:55:21.068Z,70.45
2019-02-12T06:00:26.567Z,70.52
2019-02-12T06:05:29.021Z,70.60
2019-02-12T06:10:31.299Z,70.57
2019-02-12T06:15:34.106Z,70.67
2019-02-12T06:20:36.831Z,70.58
2019-02-12T06:25:39.396Z,70.55
2019-02-12T06:30:43.948Z,70.43
2019-02-12T06:35:46.078Z,70.35
2019-02-12T06:40:48.381Z,70.32
2019-02-12T06:45:51.050Z,70.15
2019-02-12T06:50:54.218Z,70.07
2019-02-12T06:55:56.760Z,69.89
2019-02-12T07:01:00.996Z,69.65
2019-02-12T07:07:10.094Z,69.62
2019-02-12T07:12:57.590Z,69.53
2019-02-12T07:18:51.917Z,69.25
2019-02-12T07:25:07.552Z,69.07
2019-02-12T07:31:11.499Z,68.91
2019-02-12T07:37:06.870Z,68.78
2019-02-12T07:42:28.986Z,68.68
2019-02-12T07:47:48.344Z,68.43
2019-02-12T07:53:31.792Z,68.15
2019-02-12T07:59:19.775Z,68.23
2019-02-12T08:05:23.752Z,68.13
2019-02-12T08:11:00.172Z,68.18
2019-02-12T08:17:06.935Z,67.93
2019-02-12T08:23:01.076Z,68.03
2019-02-12T08:28:31.732Z,68.03
2019-02-12T08:34:17.355Z,67.97
2019-02-12T08:40:25.951Z,67.90
2019-02-12T08:46:23.007Z,67.91
2019-02-12T08:52:14.944Z,67.75
2019-02-12T08:57:37.691Z,67.39
2019-02-12T09:03:21.035Z,66.82
2019-02-12T09:08:46.229Z,65.82
2019-02-12T09:14:17.484Z,66.24
2019-02-12T09:19:56.812Z,62.89
2019-02-12T09:25:22.920Z,61.01
2019-02-12T09:31:22.129Z,61.01
2019-02-12T09:37:28.918Z,58.77
2019-02-12T09:43:13.437Z,56.92
2019-02-12T09:49:14.241Z,56.19
2019-02-12T09:55:03.101Z,54.74
2019-02-12T10:00:47.122Z,52.60
2019-02-12T10:06:33.028Z,53.08
2019-02-12T10:11:55.895Z,52.18
2019-02-12T10:17:22.215Z,51.62
2019-02-12T10:23:22.567Z,51.44
2019-02-12T10:29:24.610Z,49.96
2019-02-12T10:34:27.347Z,46.76
2019-02-12T10:39:30.826Z,45.96
2019-02-12T10:44:33.610Z,44.19
2019-02-12T10:49:35.911Z,42.70
2019-02-12T10:54:38.090Z,41.19
2019-02-12T10:59:40.308Z,41.19
2019-02-12T11:04:43.437Z,39.17
2019-02-12T11:09:46.170Z,39.37
2019-02-12T11:14:48.378Z,39.65
2019-02-12T11:19:50.567Z,41.02
2019-02-12T11:24:52.776Z,39.91
2019-02-12T11:29:55.325Z,39.51
2019-02-12T11:34:57.625Z,39.16
2019-02-12T11:39:59.833Z,38.89
2019-02-12T11:45:02.911Z,39.37
2019-02-12T11:50:06.947Z,39.75
2019-02-12T11:55:10.455Z,39.11
2019-02-12T12:00:15.465Z,38.30
2019-02-12T12:05:17.677Z,36.10
2019-02-12T12:10:19.901Z,36.19
2019-02-12T12:15:22.103Z,35.36
2019-02-12T12:20:24.713Z,35.21
2019-02-12T12:25:27.511Z,34.86
2019-02-12T12:30:29.903Z,34.75
2019-02-12T12:35:32.506Z,34.25
2019-02-12T12:40:35.306Z,35.14
2019-02-12T12:45:37.527Z,36.48
2019-02-12T12:50:40.412Z,37.62
2019-02-12T12:55:43.569Z,37.14
2019-02-12T13:00:45.826Z,37.04
2019-02-12T13:05:48.650Z,36.75
2019-02-12T13:10:51.304Z,37.68
2019-02-12T13:15:53.744Z,38.28
2019-02-12T13:20:55.943Z,36.82
2019-02-12T13:25:58.262Z,37.12
2019-02-12T13:31:00.720Z,35.50
2019-02-12T13:36:04.572Z,35.32
2019-02-12T13:41:07.884Z,35.17
2019-02-12T13:46:10.087Z,35.88
2019-02-12T13:51:12.859Z,36.18
2019-02-12T13:56:15.655Z,35.85
2019-02-12T14:01:18.145Z,35.47
2019-02-12T14:06:20.933Z,35.18
2019-02-12T14:11:24.044Z,35.42
2019-02-12T14:16:26.470Z,35.25
2019-02-12T14:21:29.319Z,35.80
2019-02-12T14:26:31.888Z,35.62
2019-02-12T14:31:34.152Z,35.53
2019-02-12T14:36:36.345Z,35.81
2019-02-12T14:41:39.304Z,35.98
2019-02-12T14:46:41.499Z,36.06
2019-02-12T14:51:44.732Z,36.23
2019-02-12T14:56:47.163Z,36.39
2019-02-12T15:01:49.857Z,36.82
2019-02-12T15:06:52.758Z,37.37
2019-02-12T15:11:55.148Z,37.76
2019-02-12T15:16:57.359Z,37.99
2019-02-12T15:21:59.659Z,38.31
2019-02-12T15:27:02.011Z,38.68
2019-02-12T15:32:05.217Z,38.87
2019-02-12T15:37:09.358Z,39.30
2019-02-12T15:42:12.146Z,39.54
2019-02-12T15:47:14.597Z,39.61
2019-02-12T15:52:17.079Z,40.01
2019-02-12T15:57:19.658Z,40.29
2019-02-12T16:02:21.822Z,40.64
2019-02-12T16:07:24.498Z,41.10
2019-02-12T16:12:28.513Z,41.50
2019-02-12T16:17:31.241Z,41.62
2019-02-12T16:22:33.733Z,42.04
2019-02-12T16:27:36.360Z,42.23
2019-02-12T16:32:38.591Z,42.59
2019-02-12T16:37:41.492Z,42.90
2019-02-12T16:42:44.823Z,43.21
2019-02-12T16:47:47.227Z,43.58
2019-02-12T16:52:51.639Z,43.92
2019-02-12T16:57:54.211Z,44.11
2019-02-12T17:02:57.363Z,44.42
2019-02-12T17:07:59.589Z,44.66
2019-02-12T17:13:02.361Z,45.07
2019-02-12T17:18:05.844Z,45.30
2019-02-12T17:23:08.134Z,45.51
2019-02-12T17:28:11.276Z,45.70
2019-02-12T17:33:13.422Z,45.98
2019-02-12T17:38:15.882Z,46.17
2019-02-12T17:43:18.917Z,46.33
2019-02-12T17:48:21.117Z,46.68
2019-02-12T17:53:23.310Z,46.84
2019-02-12T17:58:25.799Z,46.99
2019-02-12T18:03:28.195Z,47.16
2019-02-12T18:08:30.404Z,47.45
2019-02-12T18:13:33.353Z,47.68
2019-02-12T18:18:35.872Z,47.77
2019-02-12T18:23:39.881Z,48.06
2019-02-12T18:28:42.585Z,48.42
2019-02-12T18:33:45.382Z,48.43
2019-02-12T18:38:48.697Z,48.92
2019-02-12T18:43:51.985Z,49.12
2019-02-12T18:48:54.903Z,49.33
2019-02-12T18:53:57.100Z,49.39
2019-02-12T18:58:59.705Z,49.61
2019-02-12T19:04:04.998Z,49.66
2019-02-12T19:09:14.880Z,50.06
2019-02-12T19:14:18.483Z,50.36
2019-02-12T19:19:21.024Z,50.71
2019-02-12T19:24:24.112Z,50.94
2019-02-12T19:29:26.322Z,51.15
2019-02-12T19:34:29.703Z,51.28
2019-02-12T19:39:32.299Z,51.49
2019-02-12T19:44:34.654Z,51.16
2019-02-12T19:49:37.733Z,52.04
2019-02-12T19:54:40.587Z,52.59
2019-02-12T19:59:42.780Z,53.04
2019-02-12T20:04:45.822Z,53.44
2019-02-12T20:09:48.031Z,53.84
2019-02-12T20:14:50.282Z,53.72
2019-02-12T20:19:52.516Z,53.78
2019-02-12T20:24:55.898Z,54.32
2019-02-12T20:29:58.646Z,54.86
2019-02-12T20:35:01.886Z,55.16
2019-02-12T20:40:08.061Z,55.21
2019-02-12T20:45:12.440Z,55.54
2019-02-12T20:50:14.773Z,55.43
2019-02-12T20:55:17.031Z,55.85
2019-02-12T21:00:19.548Z,56.52
2019-02-12T21:05:22.322Z,57.13
2019-02-12T21:10:24.524Z,57.59
2019-02-12T21:15:27.127Z,58.16
2019-02-12T21:20:29.615Z,58.32
2019-02-12T21:25:31.767Z,58.56
2019-02-12T21:30:34.218Z,58.87
2019-02-12T21:35:37.500Z,59.29
2019-02-12T21:40:39.853Z,59.49
2019-02-12T21:45:42.057Z,59.86
2019-02-12T21:50:44.446Z,60.23
2019-02-12T21:55:46.627Z,60.89
2019-02-12T22:00:48.885Z,61.14
2019-02-12T22:05:51.404Z,61.15
2019-02-12T22:10:54.139Z,61.35
2019-02-12T22:15:56.607Z,61.51
2019-02-12T22:20:59.711Z,61.88
2019-02-12T22:26:02.550Z,62.19
2019-02-12T22:31:04.787Z,62.49
2019-02-12T22:36:06.964Z,62.96
2019-02-12T22:41:09.183Z,63.29
2019-02-12T22:46:11.973Z,63.65
2019-02-12T22:51:14.239Z,64.23
2019-02-12T22:56:16.743Z,64.77
2019-02-12T23:01:26.419Z,65.13
2019-02-12T23:06:28.806Z,65.91
2019-02-12T23:11:32.014Z,66.32
2019-02-12T23:16:34.904Z,66.58
2019-02-12T23:21:37.447Z,66.95
2019-02-12T23:26:40.604Z,67.08
2019-02-12T23:31:43.454Z,67.46
2019-02-12T23:36:45.683Z,67.79
2019-02-12T23:41:47.850Z,68.18
2019-02-12T23:46:50.670Z,68.87
2019-02-12T23:51:52.837Z,69.57
2019-02-12T23:56:57.406Z,70.29
